createdAt,value
2019-04-16T00:01:17.051Z,1.3
2019-04-16T00:06:19.487Z,1.3
2019-04-16T00:11:22.302Z,1.2
2019-04-16T00:16:24.407Z,1.1
2019-04-16T00:21:26.853Z,1.1
2019-04-16T00:26:29.321Z,1.1
2019-04-16T00:31:34.260Z,1.1
2019-04-16T00:41:37.032Z,1.4
2019-04-16T00:46:39.250Z,1.7
2019-04-16T00:51:41.679Z,2
2019-04-16T00:56:46.569Z,2.4
2019-04-16T01:01:46.545Z,2.7
2019-04-16T01:06:49.043Z,3.2
2019-04-16T01:11:51.879Z,3.6
2019-04-16T01:16:53.960Z,3.9
2019-04-16T01:21:56.452Z,4
2019-04-16T01:26:59.135Z,4.2
2019-04-16T01:32:01.352Z,4.3
2019-04-16T01:37:03.936Z,4.5
2019-04-16T01:42:06.644Z,4.6
2019-04-16T01:47:08.788Z,4.7
2019-04-16T01:52:11.308Z,4.6
2019-04-16T01:57:13.646Z,4.7
2019-04-16T02:02:16.094Z,4.6
2019-04-16T02:07:18.596Z,4.6
2019-04-16T02:12:21.375Z,4.6
2019-04-16T02:17:26.647Z,4.7
2019-04-16T02:22:26.132Z,4.7
2019-04-16T02:27:28.420Z,4.8
2019-04-16T02:32:30.852Z,4.7
2019-04-16T02:37:36.246Z,4.7
2019-04-16T02:42:36.153Z,4.6
2019-04-16T02:47:41.543Z,4.6
2019-04-16T02:52:40.789Z,4.6
2019-04-16T02:57:43.214Z,4.5
2019-04-16T03:02:45.630Z,4.3
2019-04-16T03:07:48.124Z,4.1
2019-04-16T03:12:52.068Z,3.9
2019-04-16T03:17:53.046Z,3.7
2019-04-16T03:22:55.531Z,3.5
2019-04-16T03:27:57.969Z,3.2
2019-04-16T03:33:00.496Z,3
2019-04-16T03:38:04.623Z,2.7
2019-04-16T03:43:05.759Z,2.5
2019-04-16T03:48:07.825Z,2.4
2019-04-16T03:53:10.275Z,2.3
2019-04-16T03:58:12.738Z,2.2
2019-04-16T04:03:15.260Z,2.1
2019-04-16T04:08:18.063Z,2
2019-04-16T04:13:20.190Z,2
2019-04-16T04:18:22.579Z,2
2019-04-16T04:23:25.387Z,2
2019-04-16T04:28:27.516Z,1.9
2019-04-16T04:33:29.978Z,1.9
2019-04-16T04:38:33.536Z,1.9
2019-04-16T04:43:35.221Z,2
2019-04-16T04:48:37.352Z,2.1
2019-04-16T04:53:39.882Z,2.2
2019-04-16T04:58:42.268Z,2.3
2019-04-16T05:03:47.285Z,2.3
2019-04-16T05:08:47.460Z,2.3
2019-04-16T05:13:50.021Z,2.3
2019-04-16T05:18:52.160Z,2.4
2019-04-16T05:23:57.398Z,2.6
2019-04-16T05:28:57.075Z,2.9
2019-04-16T05:34:02.278Z,3.1
2019-04-16T05:39:03.633Z,3.5
2019-04-16T05:44:04.783Z,3.8
2019-04-16T05:49:07.254Z,4.3
2019-04-16T05:54:11.932Z,4.6
2019-04-16T05:59:11.810Z,5
2019-04-16T06:04:14.423Z,5.3
2019-04-16T06:09:16.897Z,5.5
2019-04-16T06:14:19.589Z,5.8
2019-04-16T06:19:21.699Z,6
2019-04-16T06:24:24.149Z,6.3
2019-04-16T06:29:28.927Z,6.7
2019-04-16T06:34:29.015Z,8.5
2019-04-16T06:39:31.474Z,10.9
2019-04-16T06:44:35.028Z,13.2
2019-04-16T06:49:39.382Z,14.6
2019-04-16T06:54:38.843Z,15.1
2019-04-16T06:59:41.504Z,16.8
2019-04-16T07:09:46.232Z,20.2
2019-04-16T07:14:49.150Z,21.4
2019-04-16T07:19:51.182Z,21.8
2019-04-16T07:24:53.593Z,22
2019-04-16T07:29:56.192Z,21.5
2019-04-16T07:34:58.544Z,21.7
2019-04-16T07:40:01.027Z,22
2019-04-16T07:45:03.807Z,22.4
2019-04-16T07:50:05.904Z,23
2019-04-16T07:55:08.818Z,24
2019-04-16T08:00:10.876Z,25.5
2019-04-16T08:05:13.281Z,25.8
2019-04-16T08:10:16.835Z,26.9
2019-04-16T08:15:18.496Z,26.4
2019-04-16T08:20:21.323Z,26.7
2019-04-16T08:25:23.096Z,26.3
2019-04-16T08:30:25.572Z,25.7
2019-04-16T08:35:28.086Z,25.1
2019-04-16T08:40:30.602Z,25.2
2019-04-16T08:45:33.285Z,24.8
2019-04-16T08:50:35.463Z,24.8
2019-04-16T08:55:37.970Z,25.1
2019-04-16T09:00:40.308Z,26
2019-04-16T09:05:43.241Z,26.2
2019-04-16T09:10:45.225Z,25.6
2019-04-16T09:15:48.030Z,25.1
2019-04-16T09:20:50.190Z,25
2019-04-16T09:25:52.641Z,25.6
2019-04-16T09:30:55.116Z,25.4
2019-04-16T09:35:57.848Z,25.1
2019-04-16T09:40:59.991Z,24.7
2019-04-16T09:46:09.950Z,25.4
2019-04-16T09:51:04.947Z,25.8
2019-04-16T09:56:07.363Z,26.5
2019-04-16T10:01:09.812Z,27.2
2019-04-16T10:06:12.435Z,27.4
2019-04-16T10:11:14.777Z,26.2
2019-04-16T10:16:17.431Z,26.3
2019-04-16T10:21:20.301Z,27
2019-04-16T10:26:22.172Z,26.5
2019-04-16T10:31:24.566Z,27.3
2019-04-16T10:36:27.052Z,27.2
2019-04-16T10:41:29.478Z,27.3
2019-04-16T10:46:32.286Z,26.4
2019-04-16T10:51:34.405Z,25.5
2019-04-16T10:56:36.904Z,25.2
2019-04-16T11:01:39.357Z,24.9
2019-04-16T11:06:41.871Z,25
2019-04-16T11:11:44.283Z,25.7
2019-04-16T11:16:46.807Z,25.3
2019-04-16T11:21:49.218Z,25.4
2019-04-16T11:26:51.604Z,27.5
2019-04-16T11:31:54.744Z,28.6
2019-04-16T11:36:58.349Z,27.3
2019-04-16T11:41:59.068Z,27.6
2019-04-16T11:47:01.474Z,28
2019-04-16T11:52:03.925Z,28.5
2019-04-16T11:57:06.409Z,28.4
2019-04-16T12:02:08.975Z,28.1
2019-04-16T12:07:11.269Z,26.5
2019-04-16T12:12:13.769Z,27
2019-04-16T12:17:16.215Z,27.6
2019-04-16T12:22:18.763Z,26.4
2019-04-16T12:27:21.118Z,25.8
2019-04-16T12:32:26.630Z,25.4
2019-04-16T12:37:26.046Z,24.5
2019-04-16T12:42:28.573Z,23.1
2019-04-16T12:47:30.973Z,22.3
2019-04-16T12:52:33.430Z,21.3
2019-04-16T12:57:35.964Z,20.2
2019-04-16T13:02:38.410Z,19.2
2019-04-16T13:07:40.898Z,18.4
2019-04-16T13:12:43.261Z,18.3
2019-04-16T13:17:47.801Z,18.6
2019-04-16T13:22:48.262Z,18.5
2019-04-16T13:27:50.981Z,18.5
2019-04-16T13:32:53.168Z,18.2
2019-04-16T13:37:55.561Z,18
2019-04-16T13:43:01.213Z,18
2019-04-16T13:48:14.242Z,18.1
2019-04-16T13:53:02.920Z,18
2019-04-16T13:58:05.463Z,17.7
2019-04-16T14:03:07.914Z,17.6
2019-04-16T14:08:10.332Z,17.6
2019-04-16T14:13:13.800Z,17.5
2019-04-16T14:18:15.214Z,17.4
2019-04-16T14:23:17.791Z,17.3
2019-04-16T14:28:20.213Z,17.2
2019-04-16T14:33:22.577Z,17
2019-04-16T14:38:25.070Z,17
2019-04-16T14:43:29.353Z,17.1
2019-04-16T14:48:29.991Z,17.2
2019-04-16T14:53:32.407Z,17.1
2019-04-16T14:58:34.896Z,16.9
2019-04-16T15:08:39.841Z,16.8
2019-04-16T15:13:42.263Z,16.7
2019-04-16T15:18:44.682Z,16.5
2019-04-16T15:23:47.137Z,16.3
2019-04-16T15:28:49.630Z,16.2
2019-04-16T15:33:52.184Z,16.1
2019-04-16T15:38:54.691Z,16.1
2019-04-16T15:43:57.069Z,16
2019-04-16T15:48:59.446Z,16
2019-04-16T15:54:02.029Z,15.8
2019-04-16T15:59:04.344Z,15.7
2019-04-16T16:04:06.981Z,15.7
2019-04-16T16:09:09.345Z,15.7
2019-04-16T16:14:11.826Z,15.6
2019-04-16T16:19:14.186Z,15.4
2019-04-16T16:24:16.744Z,15.3
2019-04-16T16:29:19.165Z,15.2
2019-04-16T16:34:21.581Z,15.1
2019-04-16T16:39:24.035Z,15
2019-04-16T16:44:26.594Z,14.9
2019-04-16T16:49:28.932Z,14.7
2019-04-16T16:54:31.443Z,14.6
2019-04-16T16:59:33.844Z,14.5
2019-04-16T17:09:38.776Z,14.2
2019-04-16T17:14:41.268Z,14.1
2019-04-16T17:19:43.731Z,14
2019-04-16T17:24:46.133Z,13.8
2019-04-16T17:29:49.655Z,13.6
2019-04-16T17:34:51.085Z,13.4
2019-04-16T17:39:53.512Z,13.1
2019-04-16T17:44:55.971Z,12.8
2019-04-16T17:50:02.405Z,12.6
2019-04-16T17:55:00.912Z,12.4
2019-04-16T18:00:04.482Z,12.3
2019-04-16T18:05:06.062Z,12.1
2019-04-16T18:10:08.250Z,11.9
2019-04-16T18:15:10.789Z,11.5
2019-04-16T18:20:13.229Z,11.1
2019-04-16T18:25:15.663Z,10.6
2019-04-16T18:30:18.097Z,10.2
2019-04-16T18:35:20.620Z,9.8
2019-04-16T18:40:23.002Z,9.5
2019-04-16T18:45:25.468Z,9.2
2019-04-16T18:50:28.273Z,9
2019-04-16T18:55:30.387Z,8.8
2019-04-16T19:00:33.150Z,8.6
2019-04-16T19:05:35.330Z,8.4
2019-04-16T19:10:37.761Z,8.1
2019-04-16T19:15:40.262Z,7.9
2019-04-16T19:20:42.709Z,7.7
2019-04-16T19:25:45.366Z,7.5
2019-04-16T19:30:47.594Z,7.3
2019-04-16T19:35:51.853Z,7.2
2019-04-16T19:40:52.587Z,7
2019-04-16T19:45:54.995Z,6.9
2019-04-16T19:50:57.587Z,6.8
2019-04-16T19:55:59.930Z,6.6
2019-04-16T20:01:02.409Z,6.4
2019-04-16T20:06:04.910Z,6.2
2019-04-16T20:11:07.482Z,6
2019-04-16T20:16:09.725Z,5.9
2019-04-16T20:26:14.653Z,5.6
2019-04-16T20:31:17.087Z,5.5
2019-04-16T20:36:22.387Z,5.4
2019-04-16T20:41:22.183Z,5.3
2019-04-16T20:46:24.458Z,5.1
2019-04-16T20:51:27.319Z,4.9
2019-04-16T20:56:29.376Z,4.7
2019-04-16T21:01:34.085Z,4.6
2019-04-16T21:06:34.392Z,4.4
2019-04-16T21:11:40.190Z,4.2
2019-04-16T21:16:39.290Z,4.1
2019-04-16T21:21:41.678Z,4.1
2019-04-16T21:26:44.161Z,4
2019-04-16T21:31:46.645Z,4
2019-04-16T21:36:49.073Z,3.9
2019-04-16T21:41:51.593Z,3.8
2019-04-16T21:46:57.001Z,3.8
2019-04-16T21:51:56.592Z,3.7
2019-04-16T21:56:59.008Z,3.6
2019-04-16T22:02:01.748Z,3.4
2019-04-16T22:07:07.121Z,3.3
2019-04-16T22:12:06.417Z,3.3
2019-04-16T22:17:08.865Z,3.1
2019-04-16T22:22:11.604Z,3.1
2019-04-16T22:27:13.727Z,3
2019-04-16T22:32:16.193Z,2.9
2019-04-16T22:37:18.659Z,2.8
2019-04-16T22:42:21.115Z,2.8
2019-04-16T22:47:23.586Z,2.7
2019-04-16T22:52:26.041Z,2.5
2019-04-16T22:57:30.848Z,2.5
2019-04-16T23:02:30.981Z,2.4
2019-04-16T23:07:33.433Z,2.4
2019-04-16T23:12:35.948Z,2.4
2019-04-16T23:17:38.348Z,2.4
2019-04-16T23:22:43.582Z,2.3
2019-04-16T23:27:43.266Z,2.3
2019-04-16T23:32:45.726Z,2.3
2019-04-16T23:37:48.203Z,2.3
2019-04-16T23:42:51.069Z,2.1
2019-04-16T23:47:53.111Z,2.1
2019-04-16T23:52:55.728Z,2.1
2019-04-16T23:57:58.467Z,2.1
